Current Conditions
Misty
Conditions



Pressure
30.04 (inHG) - 1017.27 (mb)
Visibility

4.0 (miles) - 6.4 (km)
   Temperature
59  °F
15°C
57  °F
Dewpoint
94  %
 Humidity
   Wind Speed
8  mph
7  kts
13  km/h
3.6  m/s
   Wind Direction
 180°
Due South
   Airport Data
KSBA
Location Santa Barbara Municipal Airport 6 mi (9.65 km)
Metar :KSBA 020153Z 18007KT 4SM BR BKN006 BKN015 OVC034 15/14 A3004 RMK AO2 SLP171 T01500139 $
Fri 1st March 17:53 pm
   Raw Metar Info
Raw METAR is the most common format in the world for the transmission of observational weather data. It is highly standardized through the International Civil Aviation Organization (ICAO), which allows it to be understood throughout most of the world.
   API Info
Data Provided by
https://www.checkwx.com/weather/KSBA
   © Info
CSS/SVG/PHP scripts were developed by weather34.com for use in the weather34 template © 2015-2024

Guide Info provided by Metar-Wikipedia